sensor_id;sensor_type;location;lat;lon;timestamp;pressure;altitude;pressure_sealevel;temperature;humidity
40205;BME280;26963;42.666;23.366;2023-07-29T00:00:49;94801.28;;;22.36;42.88
40205;BME280;26963;42.666;23.366;2023-07-29T00:03:15;94823.88;;;22.36;42.36
40205;BME280;26963;42.666;23.366;2023-07-29T00:05:40;94815.19;;;22.27;42.40
40205;BME280;26963;42.666;23.366;2023-07-29T00:08:06;94827.41;;;22.37;42.71
40205;BME280;26963;42.666;23.366;2023-07-29T00:10:34;94790.13;;;22.14;42.52
40205;BME280;26963;42.666;23.366;2023-07-29T00:13:00;94841.09;;;22.40;42.93
40205;BME280;26963;42.666;23.366;2023-07-29T00:15:26;94826.97;;;22.35;42.96
40205;BME280;26963;42.666;23.366;2023-07-29T00:17:52;94815.22;;;22.30;42.99
40205;BME280;26963;42.666;23.366;2023-07-29T00:20:18;94759.06;;;21.88;43.48
40205;BME280;26963;42.666;23.366;2023-07-29T00:22:43;94828.84;;;22.30;43.37
40205;BME280;26963;42.666;23.366;2023-07-29T00:25:09;94815.50;;;22.18;43.65
40205;BME280;26963;42.666;23.366;2023-07-29T00:27:34;94838.59;;;22.31;43.67
40205;BME280;26963;42.666;23.366;2023-07-29T00:29:59;94832.75;;;22.29;43.51
40205;BME280;26963;42.666;23.366;2023-07-29T00:32:28;94822.53;;;22.23;43.99
40205;BME280;26963;42.666;23.366;2023-07-29T00:34:54;94828.25;;;22.14;43.67
40205;BME280;26963;42.666;23.366;2023-07-29T00:37:20;94829.88;;;22.19;43.92
40205;BME280;26963;42.666;23.366;2023-07-29T00:39:46;94769.47;;;21.82;43.70
40205;BME280;26963;42.666;23.366;2023-07-29T00:42:12;94788.84;;;22.04;43.63
40205;BME280;26963;42.666;23.366;2023-07-29T00:44:37;94778.16;;;21.92;43.94
40205;BME280;26963;42.666;23.366;2023-07-29T00:47:04;94762.00;;;21.76;44.57
40205;BME280;26963;42.666;23.366;2023-07-29T00:49:31;94820.00;;;22.07;44.61
40205;BME280;26963;42.666;23.366;2023-07-29T00:51:57;94783.41;;;21.77;44.91
40205;BME280;26963;42.666;23.366;2023-07-29T00:54:23;94788.06;;;21.77;45.14
40205;BME280;26963;42.666;23.366;2023-07-29T00:56:49;94767.56;;;21.56;45.43
40205;BME280;26963;42.666;23.366;2023-07-29T00:59:15;94806.75;;;21.78;45.53
40205;BME280;26963;42.666;23.366;2023-07-29T01:01:40;94815.31;;;21.77;45.59
40205;BME280;26963;42.666;23.366;2023-07-29T01:04:06;94795.31;;;21.65;45.75
40205;BME280;26963;42.666;23.366;2023-07-29T01:09:25;94808.53;;;21.67;45.56
40205;BME280;26963;42.666;23.366;2023-07-29T01:12:20;94809.66;;;21.62;45.63
40205;BME280;26963;42.666;23.366;2023-07-29T01:15:00;94763.28;;;21.32;45.34
40205;BME280;26963;42.666;23.366;2023-07-29T01:17:35;94806.44;;;21.57;45.48
40205;BME280;26963;42.666;23.366;2023-07-29T01:20:13;94818.19;;;21.61;45.47
40205;BME280;26963;42.666;23.366;2023-07-29T01:22:41;94767.94;;;21.31;45.49
40205;BME280;26963;42.666;23.366;2023-07-29T01:25:07;94804.69;;;21.45;45.33
40205;BME280;26963;42.666;23.366;2023-07-29T01:27:33;94817.94;;;21.46;45.61
40205;BME280;26963;42.666;23.366;2023-07-29T01:29:59;94815.16;;;21.43;45.33
40205;BME280;26963;42.666;23.366;2023-07-29T01:37:30;94807.34;;;21.41;45.66
40205;BME280;26963;42.666;23.366;2023-07-29T01:39:59;94802.16;;;21.32;45.78
40205;BME280;26963;42.666;23.366;2023-07-29T01:42:25;94802.16;;;21.32;46.07
40205;BME280;26963;42.666;23.366;2023-07-29T01:44:52;94802.84;;;21.26;44.62
40205;BME280;26963;42.666;23.366;2023-07-29T01:47:17;94718.91;;;20.78;44.80
40205;BME280;26963;42.666;23.366;2023-07-29T01:49:43;94778.47;;;21.10;44.79
40205;BME280;26963;42.666;23.366;2023-07-29T01:52:08;94753.72;;;20.92;44.62
40205;BME280;26963;42.666;23.366;2023-07-29T01:54:34;94800.00;;;21.18;44.94
40205;BME280;26963;42.666;23.366;2023-07-29T01:56:59;94809.84;;;21.27;45.18
40205;BME280;26963;42.666;23.366;2023-07-29T01:59:25;94795.63;;;21.14;46.07
40205;BME280;26963;42.666;23.366;2023-07-29T02:01:50;94805.69;;;21.10;46.82
40205;BME280;26963;42.666;23.366;2023-07-29T02:04:16;94807.69;;;21.13;46.12
40205;BME280;26963;42.666;23.366;2023-07-29T02:06:41;94814.91;;;21.05;46.48
40205;BME280;26963;42.666;23.366;2023-07-29T02:09:07;94752.81;;;20.64;45.81
40205;BME280;26963;42.666;23.366;2023-07-29T02:11:33;94792.84;;;20.87;45.71
40205;BME280;26963;42.666;23.366;2023-07-29T02:13:58;94810.09;;;20.95;46.22
40205;BME280;26963;42.666;23.366;2023-07-29T02:16:24;94824.59;;;21.02;46.60
40205;BME280;26963;42.666;23.366;2023-07-29T02:18:49;94763.69;;;20.64;46.79
40205;BME280;26963;42.666;23.366;2023-07-29T02:21:16;94765.13;;;20.58;45.79
40205;BME280;26963;42.666;23.366;2023-07-29T02:23:42;94814.31;;;20.92;45.57
40205;BME280;26963;42.666;23.366;2023-07-29T02:26:07;94786.28;;;20.68;45.55
40205;BME280;26963;42.666;23.366;2023-07-29T02:28:33;94771.28;;;20.55;46.47
40205;BME280;26963;42.666;23.366;2023-07-29T02:31:21;94829.50;;;20.93;46.02
40205;BME280;26963;42.666;23.366;2023-07-29T02:33:46;94817.34;;;20.87;45.31
40205;BME280;26963;42.666;23.366;2023-07-29T02:36:13;94818.63;;;20.93;45.67
40205;BME280;26963;42.666;23.366;2023-07-29T02:38:40;94753.34;;;20.50;44.46
40205;BME280;26963;42.666;23.366;2023-07-29T02:41:05;94820.78;;;20.84;44.28
40205;BME280;26963;42.666;23.366;2023-07-29T02:43:31;94814.91;;;20.82;44.41
40205;BME280;26963;42.666;23.366;2023-07-29T02:45:57;94819.22;;;20.83;43.84
40205;BME280;26963;42.666;23.366;2023-07-29T02:48:22;94817.56;;;20.78;43.37
40205;BME280;26963;42.666;23.366;2023-07-29T02:50:48;94764.88;;;20.44;43.48
40205;BME280;26963;42.666;23.366;2023-07-29T02:53:14;94763.16;;;20.35;43.57
40205;BME280;26963;42.666;23.366;2023-07-29T02:55:40;94811.91;;;20.67;43.13
40205;BME280;26963;42.666;23.366;2023-07-29T02:58:06;94813.47;;;20.68;43.36
40205;BME280;26963;42.666;23.366;2023-07-29T03:00:32;94820.22;;;20.75;43.25
40205;BME280;26963;42.666;23.366;2023-07-29T03:02:58;94811.22;;;20.71;44.00
40205;BME280;26963;42.666;23.366;2023-07-29T03:05:24;94832.00;;;20.82;44.71
40205;BME280;26963;42.666;23.366;2023-07-29T03:07:49;94755.88;;;20.40;45.70
40205;BME280;26963;42.666;23.366;2023-07-29T03:10:15;94834.84;;;20.90;45.75
40205;BME280;26963;42.666;23.366;2023-07-29T03:12:41;94826.94;;;20.81;45.86
40205;BME280;26963;42.666;23.366;2023-07-29T03:15:06;94838.38;;;20.90;46.18
40205;BME280;26963;42.666;23.366;2023-07-29T03:17:32;94789.19;;;20.56;46.05
40205;BME280;26963;42.666;23.366;2023-07-29T03:19:58;94819.22;;;20.83;46.79
40205;BME280;26963;42.666;23.366;2023-07-29T03:22:23;94816.28;;;20.72;46.46
40205;BME280;26963;42.666;23.366;2023-07-29T03:24:49;94780.09;;;20.48;46.78
40205;BME280;26963;42.666;23.366;2023-07-29T03:27:14;94805.59;;;20.63;46.46
40205;BME280;26963;42.666;23.366;2023-07-29T03:29:41;94829.38;;;20.66;46.32
40205;BME280;26963;42.666;23.366;2023-07-29T03:32:07;94833.38;;;20.53;46.72
40205;BME280;26963;42.666;23.366;2023-07-29T03:34:33;94841.97;;;20.55;47.24
40205;BME280;26963;42.666;23.366;2023-07-29T03:37:00;94848.53;;;20.54;47.65
40205;BME280;26963;42.666;23.366;2023-07-29T03:39:26;94854.13;;;20.61;47.50
40205;BME280;26963;42.666;23.366;2023-07-29T03:41:52;94822.50;;;20.53;47.34
40205;BME280;26963;42.666;23.366;2023-07-29T03:44:17;94854.72;;;20.71;47.22
40205;BME280;26963;42.666;23.366;2023-07-29T03:46:44;94756.53;;;20.13;47.33
40205;BME280;26963;42.666;23.366;2023-07-29T03:49:10;94838.09;;;20.76;47.37
40205;BME280;26963;42.666;23.366;2023-07-29T03:51:36;94841.81;;;20.87;47.20
40205;BME280;26963;42.666;23.366;2023-07-29T03:54:01;94849.06;;;21.02;46.95
40205;BME280;26963;42.666;23.366;2023-07-29T03:56:27;94842.31;;;21.16;46.67
40205;BME280;26963;42.666;23.366;2023-07-29T03:58:53;94831.88;;;21.18;45.89
40205;BME280;26963;42.666;23.366;2023-07-29T04:01:19;94841.47;;;21.35;45.66
40205;BME280;26963;42.666;23.366;2023-07-29T04:03:45;94830.97;;;21.33;45.47
40205;BME280;26963;42.666;23.366;2023-07-29T04:06:12;94813.72;;;21.26;45.47
40205;BME280;26963;42.666;23.366;2023-07-29T04:08:37;94842.22;;;21.55;45.35
40205;BME280;26963;42.666;23.366;2023-07-29T04:11:03;94788.94;;;21.31;44.89
40205;BME280;26963;42.666;23.366;2023-07-29T04:13:28;94862.13;;;21.86;44.32
40205;BME280;26963;42.666;23.366;2023-07-29T04:15:54;94837.97;;;21.85;44.41
40205;BME280;26963;42.666;23.366;2023-07-29T04:18:19;94805.19;;;21.77;43.85
40205;BME280;26963;42.666;23.366;2023-07-29T04:20:45;94862.84;;;22.37;42.41
40205;BME280;26963;42.666;23.366;2023-07-29T04:23:10;94856.34;;;22.45;42.81
40205;BME280;26963;42.666;23.366;2023-07-29T04:25:36;94809.81;;;22.34;42.25
40205;BME280;26963;42.666;23.366;2023-07-29T04:28:01;94846.94;;;22.73;40.80
40205;BME280;26963;42.666;23.366;2023-07-29T04:30:28;94717.53;;;21.98;40.44
40205;BME280;26963;42.666;23.366;2023-07-29T04:32:54;94836.97;;;22.91;40.29
40205;BME280;26963;42.666;23.366;2023-07-29T04:35:19;94797.06;;;22.76;40.24
40205;BME280;26963;42.666;23.366;2023-07-29T04:37:45;94850.47;;;23.15;39.77
40205;BME280;26963;42.666;23.366;2023-07-29T04:40:13;94837.00;;;22.95;39.80
40205;BME280;26963;42.666;23.366;2023-07-29T04:42:39;94864.34;;;22.99;40.31
40205;BME280;26963;42.666;23.366;2023-07-29T04:45:06;94858.75;;;22.84;40.33
40205;BME280;26963;42.666;23.366;2023-07-29T04:47:31;94850.03;;;22.71;40.19
40205;BME280;26963;42.666;23.366;2023-07-29T04:49:57;94862.72;;;22.56;40.63
40205;BME280;26963;42.666;23.366;2023-07-29T04:52:22;94862.84;;;22.37;41.15
40205;BME280;26963;42.666;23.366;2023-07-29T04:54:48;94864.28;;;22.30;41.91
40205;BME280;26963;42.666;23.366;2023-07-29T04:57:13;94871.97;;;22.21;41.66
40205;BME280;26963;42.666;23.366;2023-07-29T04:59:39;94868.72;;;22.12;41.97
40205;BME280;26963;42.666;23.366;2023-07-29T05:02:04;94870.59;;;22.08;42.53
40205;BME280;26963;42.666;23.366;2023-07-29T05:04:30;94863.88;;;21.98;42.74
40205;BME280;26963;42.666;23.366;2023-07-29T05:06:55;94871.56;;;21.92;42.86
40205;BME280;26963;42.666;23.366;2023-07-29T05:09:21;94822.84;;;21.60;43.43
40205;BME280;26963;42.666;23.366;2023-07-29T05:11:46;94857.00;;;21.81;43.33
40205;BME280;26963;42.666;23.366;2023-07-29T05:14:17;94833.84;;;21.67;43.61
40205;BME280;26963;42.666;23.366;2023-07-29T05:16:43;94879.41;;;21.97;43.57
40205;BME280;26963;42.666;23.366;2023-07-29T05:19:10;94883.00;;;22.02;43.71
40205;BME280;26963;42.666;23.366;2023-07-29T05:21:37;94884.66;;;22.10;43.88
40205;BME280;26963;42.666;23.366;2023-07-29T05:24:03;94882.81;;;22.18;43.53
40205;BME280;26963;42.666;23.366;2023-07-29T05:26:28;94844.25;;;21.89;43.39
40205;BME280;26963;42.666;23.366;2023-07-29T05:28:54;94894.91;;;22.20;43.83
40205;BME280;26963;42.666;23.366;2023-07-29T05:31:19;94876.16;;;22.15;43.84
40205;BME280;26963;42.666;23.366;2023-07-29T05:33:45;94882.91;;;22.25;43.11
40205;BME280;26963;42.666;23.366;2023-07-29T05:36:11;94877.50;;;22.28;43.31
40205;BME280;26963;42.666;23.366;2023-07-29T05:38:36;94890.19;;;22.44;42.93
40205;BME280;26963;42.666;23.366;2023-07-29T05:41:02;94854.84;;;22.21;42.94
40205;BME280;26963;42.666;23.366;2023-07-29T05:43:27;94844.22;;;22.12;42.44
40205;BME280;26963;42.666;23.366;2023-07-29T05:45:53;94888.94;;;22.38;42.41
40205;BME280;26963;42.666;23.366;2023-07-29T05:48:21;94893.75;;;22.48;42.61
40205;BME280;26963;42.666;23.366;2023-07-29T05:50:47;94883.16;;;22.43;42.82
40205;BME280;26963;42.666;23.366;2023-07-29T05:53:14;94805.47;;;21.95;42.89
40205;BME280;26963;42.666;23.366;2023-07-29T05:55:40;94892.38;;;22.61;42.65
40205;BME280;26963;42.666;23.366;2023-07-29T05:58:05;94896.63;;;22.59;42.44
40205;BME280;26963;42.666;23.366;2023-07-29T06:00:31;94890.41;;;22.62;42.87
40205;BME280;26963;42.666;23.366;2023-07-29T06:02:57;94897.78;;;22.58;42.27
40205;BME280;26963;42.666;23.366;2023-07-29T06:05:22;94884.88;;;22.55;43.00
40205;BME280;26963;42.666;23.366;2023-07-29T06:07:48;94891.94;;;22.59;42.77
40205;BME280;26963;42.666;23.366;2023-07-29T06:10:15;94871.63;;;22.53;42.89
40205;BME280;26963;42.666;23.366;2023-07-29T06:12:45;94867.91;;;22.69;42.86
40205;BME280;26963;42.666;23.366;2023-07-29T06:15:10;94891.88;;;22.86;42.46
40205;BME280;26963;42.666;23.366;2023-07-29T06:17:37;94878.53;;;22.77;42.09
40205;BME280;26963;42.666;23.366;2023-07-29T06:20:03;94882.56;;;22.91;42.94
40205;BME280;26963;42.666;23.366;2023-07-29T06:22:29;94843.47;;;22.79;42.69
40205;BME280;26963;42.666;23.366;2023-07-29T06:24:54;94878.78;;;22.99;42.38
40205;BME280;26963;42.666;23.366;2023-07-29T06:27:20;94874.53;;;23.02;42.35
40205;BME280;26963;42.666;23.366;2023-07-29T06:29:45;94861.22;;;23.00;42.15
40205;BME280;26963;42.666;23.366;2023-07-29T06:32:11;94864.53;;;23.17;42.03
40205;BME280;26963;42.666;23.366;2023-07-29T06:34:36;94829.44;;;24.19;39.79
40205;BME280;26963;42.666;23.366;2023-07-29T06:37:02;94845.81;;;28.21;32.78
40205;BME280;26963;42.666;23.366;2023-07-29T06:39:27;94850.41;;;30.90;28.83
40205;BME280;26963;42.666;23.366;2023-07-29T06:41:53;94856.47;;;32.66;25.32
40205;BME280;26963;42.666;23.366;2023-07-29T06:44:18;94844.41;;;34.28;23.57
40205;BME280;26963;42.666;23.366;2023-07-29T06:46:44;94843.56;;;35.79;21.72
40205;BME280;26963;42.666;23.366;2023-07-29T06:49:09;94835.22;;;37.18;20.18
40205;BME280;26963;42.666;23.366;2023-07-29T06:51:35;94787.72;;;37.95;18.90
40205;BME280;26963;42.666;23.366;2023-07-29T06:54:02;94819.28;;;38.49;18.25
40205;BME280;26963;42.666;23.366;2023-07-29T06:56:28;94836.50;;;39.02;17.58
40205;BME280;26963;42.666;23.366;2023-07-29T06:58:53;94834.38;;;38.97;17.28
40205;BME280;26963;42.666;23.366;2023-07-29T07:01:19;94831.66;;;38.88;17.21
40205;BME280;26963;42.666;23.366;2023-07-29T07:03:44;94820.22;;;39.51;16.97
40205;BME280;26963;42.666;23.366;2023-07-29T07:06:10;94851.03;;;40.43;16.01
40205;BME280;26963;42.666;23.366;2023-07-29T07:08:35;94829.91;;;40.95;15.80
40205;BME280;26963;42.666;23.366;2023-07-29T07:11:01;94842.91;;;41.88;14.94
40205;BME280;26963;42.666;23.366;2023-07-29T07:13:26;94842.19;;;42.59;14.39
40205;BME280;26963;42.666;23.366;2023-07-29T07:15:56;94794.69;;;42.95;13.51
40205;BME280;26963;42.666;23.366;2023-07-29T07:18:22;94848.41;;;43.88;13.29
40205;BME280;26963;42.666;23.366;2023-07-29T07:20:51;94838.69;;;43.95;12.72
40205;BME280;26963;42.666;23.366;2023-07-29T07:23:18;94844.88;;;43.71;12.95
40205;BME280;26963;42.666;23.366;2023-07-29T07:25:43;94834.09;;;43.86;12.87
40205;BME280;26963;42.666;23.366;2023-07-29T07:28:09;94842.41;;;44.31;12.62
40205;BME280;26963;42.666;23.366;2023-07-29T07:30:35;94829.78;;;44.44;11.98
40205;BME280;26963;42.666;23.366;2023-07-29T07:33:04;94797.72;;;43.77;12.24
40205;BME280;26963;42.666;23.366;2023-07-29T07:35:30;94821.66;;;44.23;12.72
40205;BME280;26963;42.666;23.366;2023-07-29T07:37:55;94828.63;;;44.70;12.41
40205;BME280;26963;42.666;23.366;2023-07-29T07:40:21;94795.47;;;44.87;11.88
40205;BME280;26963;42.666;23.366;2023-07-29T07:42:46;94800.97;;;45.04;11.59
40205;BME280;26963;42.666;23.366;2023-07-29T07:45:12;94796.59;;;45.39;11.52
40205;BME280;26963;42.666;23.366;2023-07-29T07:47:37;94836.13;;;45.70;11.37
40205;BME280;26963;42.666;23.366;2023-07-29T07:50:03;94823.69;;;45.23;11.21
40205;BME280;26963;42.666;23.366;2023-07-29T07:52:29;94765.09;;;45.30;11.29
40205;BME280;26963;42.666;23.366;2023-07-29T07:54:54;94831.06;;;46.12;11.47
40205;BME280;26963;42.666;23.366;2023-07-29T07:57:21;94836.56;;;46.23;10.99
40205;BME280;26963;42.666;23.366;2023-07-29T07:59:46;94833.72;;;46.48;10.98
40205;BME280;26963;42.666;23.366;2023-07-29T08:02:12;94807.41;;;46.34;10.76
40205;BME280;26963;42.666;23.366;2023-07-29T08:04:38;94837.94;;;46.80;10.38
40205;BME280;26963;42.666;23.366;2023-07-29T08:07:04;94846.78;;;47.09;10.30
40205;BME280;26963;42.666;23.366;2023-07-29T08:09:29;94833.53;;;47.17;10.00
40205;BME280;26963;42.666;23.366;2023-07-29T08:11:55;94800.09;;;47.15;10.40
40205;BME280;26963;42.666;23.366;2023-07-29T08:14:20;94835.59;;;47.49;10.12
40205;BME280;26963;42.666;23.366;2023-07-29T08:16:46;94818.84;;;47.18;9.74
40205;BME280;26963;42.666;23.366;2023-07-29T08:19:12;94832.16;;;47.04;10.26
40205;BME280;26963;42.666;23.366;2023-07-29T08:21:38;94841.66;;;47.07;10.35
40205;BME280;26963;42.666;23.366;2023-07-29T08:24:04;94846.44;;;47.31;10.15
40205;BME280;26963;42.666;23.366;2023-07-29T08:26:29;94840.56;;;47.10;9.73
40205;BME280;26963;42.666;23.366;2023-07-29T08:28:55;94841.66;;;47.07;9.67
40205;BME280;26963;42.666;23.366;2023-07-29T08:31:20;94840.00;;;46.79;10.24
40205;BME280;26963;42.666;23.366;2023-07-29T08:33:46;94828.75;;;46.93;9.89
40205;BME280;26963;42.666;23.366;2023-07-29T08:36:11;94829.13;;;46.83;9.92
40205;BME280;26963;42.666;23.366;2023-07-29T08:38:37;94816.50;;;46.84;10.07
40205;BME280;26963;42.666;23.366;2023-07-29T08:41:16;94779.25;;;46.80;10.43
40205;BME280;26963;42.666;23.366;2023-07-29T08:43:50;94816.38;;;47.28;9.84
40205;BME280;26963;42.666;23.366;2023-07-29T08:46:19;94814.78;;;47.46;10.19
40205;BME280;26963;42.666;23.366;2023-07-29T08:48:45;94810.78;;;47.23;9.40
40205;BME280;26963;42.666;23.366;2023-07-29T08:51:12;94815.22;;;46.47;9.95
40205;BME280;26963;42.666;23.366;2023-07-29T08:53:38;94816.41;;;46.33;10.23
40205;BME280;26963;42.666;23.366;2023-07-29T08:56:04;94812.69;;;46.44;10.20
40205;BME280;26963;42.666;23.366;2023-07-29T08:58:31;94768.81;;;46.56;10.25
40205;BME280;26963;42.666;23.366;2023-07-29T09:00:56;94814.13;;;46.88;9.71
40205;BME280;26963;42.666;23.366;2023-07-29T09:03:22;94808.38;;;46.94;9.36
40205;BME280;26963;42.666;23.366;2023-07-29T09:05:47;94816.88;;;47.13;9.52
40205;BME280;26963;42.666;23.366;2023-07-29T09:08:14;94814.13;;;46.50;8.83
40205;BME280;26963;42.666;23.366;2023-07-29T09:10:39;94813.81;;;45.36;9.69
40205;BME280;26963;42.666;23.366;2023-07-29T09:13:05;94806.72;;;45.23;9.75
40205;BME280;26963;42.666;23.366;2023-07-29T09:15:32;94795.81;;;45.39;9.46
40205;BME280;26963;42.666;23.366;2023-07-29T09:17:59;94804.09;;;45.31;9.79
40205;BME280;26963;42.666;23.366;2023-07-29T09:20:26;94792.75;;;45.06;9.98
40205;BME280;26963;42.666;23.366;2023-07-29T09:22:58;94793.13;;;44.50;9.98
40205;BME280;26963;42.666;23.366;2023-07-29T09:25:28;94795.22;;;43.56;11.11
40205;BME280;26963;42.666;23.366;2023-07-29T09:28:09;94748.41;;;41.91;12.30
40205;BME280;26963;42.666;23.366;2023-07-29T09:30:35;94791.69;;;40.97;13.87
40205;BME280;26963;42.666;23.366;2023-07-29T09:33:00;94767.75;;;40.02;14.30
40205;BME280;26963;42.666;23.366;2023-07-29T09:35:29;94781.00;;;39.15;15.34
40205;BME280;26963;42.666;23.366;2023-07-29T09:37:55;94707.97;;;37.94;15.74
40205;BME280;26963;42.666;23.366;2023-07-29T09:40:20;94774.09;;;37.63;16.47
40205;BME280;26963;42.666;23.366;2023-07-29T09:42:50;94768.75;;;37.17;17.03
40205;BME280;26963;42.666;23.366;2023-07-29T09:45:26;94772.41;;;36.80;16.80
40205;BME280;26963;42.666;23.366;2023-07-29T09:47:53;94788.56;;;36.58;17.29
40205;BME280;26963;42.666;23.366;2023-07-29T09:50:18;94776.81;;;36.35;17.37
40205;BME280;26963;42.666;23.366;2023-07-29T09:52:44;94734.69;;;35.77;17.54
40205;BME280;26963;42.666;23.366;2023-07-29T09:55:12;94767.00;;;35.65;17.77
40205;BME280;26963;42.666;23.366;2023-07-29T09:57:39;94773.84;;;35.33;18.22
40205;BME280;26963;42.666;23.366;2023-07-29T10:00:05;94762.38;;;35.21;18.55
40205;BME280;26963;42.666;23.366;2023-07-29T10:02:43;94709.41;;;34.84;18.58
40205;BME280;26963;42.666;23.366;2023-07-29T10:05:09;94764.78;;;35.01;18.59
40205;BME280;26963;42.666;23.366;2023-07-29T10:07:37;94717.56;;;34.47;18.16
40205;BME280;26963;42.666;23.366;2023-07-29T10:10:07;94738.31;;;34.65;18.63
40205;BME280;26963;42.666;23.366;2023-07-29T10:12:34;94767.38;;;34.63;18.18
40205;BME280;26963;42.666;23.366;2023-07-29T10:15:03;94721.09;;;34.25;18.54
40205;BME280;26963;42.666;23.366;2023-07-29T10:17:30;94752.06;;;34.37;18.72
40205;BME280;26963;42.666;23.366;2023-07-29T10:19:56;94755.22;;;34.26;19.24
40205;BME280;26963;42.666;23.366;2023-07-29T10:22:28;94726.16;;;33.95;19.27
40205;BME280;26963;42.666;23.366;2023-07-29T10:24:59;94744.41;;;34.06;19.21
40205;BME280;26963;42.666;23.366;2023-07-29T10:27:28;94734.28;;;33.77;20.09
40205;BME280;26963;42.666;23.366;2023-07-29T10:29:55;94728.09;;;33.73;19.86
40205;BME280;26963;42.666;23.366;2023-07-29T10:32:25;94726.22;;;33.70;20.10
40205;BME280;26963;42.666;23.366;2023-07-29T10:34:51;94709.47;;;33.60;19.84
40205;BME280;26963;42.666;23.366;2023-07-29T10:37:17;94655.97;;;33.25;19.74
40205;BME280;26963;42.666;23.366;2023-07-29T10:39:52;94663.53;;;33.11;20.60
40205;BME280;26963;42.666;23.366;2023-07-29T10:42:19;94700.78;;;33.23;20.18
40205;BME280;26963;42.666;23.366;2023-07-29T10:44:49;94695.94;;;33.14;20.70
40205;BME280;26963;42.666;23.366;2023-07-29T10:47:19;94707.66;;;33.18;20.65
40205;BME280;26963;42.666;23.366;2023-07-29T10:49:51;94669.81;;;32.77;19.70
40205;BME280;26963;42.666;23.366;2023-07-29T10:52:28;94712.91;;;32.78;20.09
40205;BME280;26963;42.666;23.366;2023-07-29T10:54:55;94691.34;;;32.30;20.02
40205;BME280;26963;42.666;23.366;2023-07-29T10:59:57;94697.56;;;32.34;21.33
40205;BME280;26963;42.666;23.366;2023-07-29T11:02:38;94685.94;;;32.40;20.62
40205;BME280;26963;42.666;23.366;2023-07-29T11:05:15;94664.06;;;32.16;20.13
40205;BME280;26963;42.666;23.366;2023-07-29T11:07:49;94677.53;;;32.30;20.51
40205;BME280;26963;42.666;23.366;2023-07-29T11:10:15;94635.44;;;31.93;20.57
40205;BME280;26963;42.666;23.366;2023-07-29T11:17:39;94672.88;;;31.98;19.88
40205;BME280;26963;42.666;23.366;2023-07-29T11:20:06;94657.03;;;31.98;19.20
40205;BME280;26963;42.666;23.366;2023-07-29T11:22:33;94679.09;;;32.15;20.04
40205;BME280;26963;42.666;23.366;2023-07-29T11:24:59;94675.47;;;32.18;19.47
40205;BME280;26963;42.666;23.366;2023-07-29T11:27:25;94666.91;;;31.99;19.42
40205;BME280;26963;42.666;23.366;2023-07-29T11:29:50;94659.47;;;31.96;20.15
40205;BME280;26963;42.666;23.366;2023-07-29T11:32:21;94627.88;;;31.81;20.14
40205;BME280;26963;42.666;23.366;2023-07-29T11:34:47;94668.03;;;32.15;20.72
40205;BME280;26963;42.666;23.366;2023-07-29T11:37:12;94663.28;;;32.15;20.71
40205;BME280;26963;42.666;23.366;2023-07-29T11:39:41;94591.81;;;31.71;20.87
40205;BME280;26963;42.666;23.366;2023-07-29T11:42:11;94660.56;;;32.28;20.27
40205;BME280;26963;42.666;23.366;2023-07-29T11:44:36;94638.22;;;32.06;19.97
40205;BME280;26963;42.666;23.366;2023-07-29T11:47:02;94651.44;;;32.15;20.36
40205;BME280;26963;42.666;23.366;2023-07-29T11:49:32;94663.91;;;31.94;21.16
40205;BME280;26963;42.666;23.366;2023-07-29T11:51:58;94647.59;;;31.83;20.86
40205;BME280;26963;42.666;23.366;2023-07-29T11:54:24;94655.06;;;31.99;20.79
40205;BME280;26963;42.666;23.366;2023-07-29T11:56:50;94656.25;;;31.85;21.10
40205;BME280;26963;42.666;23.366;2023-07-29T11:59:16;94656.31;;;31.68;21.28
40205;BME280;26963;42.666;23.366;2023-07-29T12:01:41;94657.63;;;31.77;21.79
40205;BME280;26963;42.666;23.366;2023-07-29T12:04:07;94645.38;;;31.78;21.64
40205;BME280;26963;42.666;23.366;2023-07-29T12:06:33;94649.69;;;31.79;21.14
40205;BME280;26963;42.666;23.366;2023-07-29T12:09:00;94632.97;;;31.69;21.03
40205;BME280;26963;42.666;23.366;2023-07-29T12:11:25;94615.69;;;31.65;21.28
40205;BME280;26963;42.666;23.366;2023-07-29T12:13:53;94629.66;;;31.75;20.95
40205;BME280;26963;42.666;23.366;2023-07-29T12:16:19;94608.78;;;31.57;21.26
40205;BME280;26963;42.666;23.366;2023-07-29T12:18:44;94631.19;;;31.76;21.31
40205;BME280;26963;42.666;23.366;2023-07-29T12:21:10;94631.88;;;31.80;20.67
40205;BME280;26963;42.666;23.366;2023-07-29T12:23:36;94616.59;;;31.46;20.84
40205;BME280;26963;42.666;23.366;2023-07-29T12:26:01;94578.31;;;31.15;20.72
40205;BME280;26963;42.666;23.366;2023-07-29T12:28:27;94624.22;;;31.42;20.74
40205;BME280;26963;42.666;23.366;2023-07-29T12:30:54;94629.09;;;31.50;20.33
40205;BME280;26963;42.666;23.366;2023-07-29T12:33:49;94622.84;;;31.33;20.87
40205;BME280;26963;42.666;23.366;2023-07-29T12:36:14;94560.28;;;30.94;20.96
40205;BME280;26963;42.666;23.366;2023-07-29T12:38:43;94626.47;;;31.30;21.01
40205;BME280;26963;42.666;23.366;2023-07-29T12:41:09;94579.19;;;31.12;20.80
40205;BME280;26963;42.666;23.366;2023-07-29T12:43:34;94601.13;;;31.48;21.64
40205;BME280;26963;42.666;23.366;2023-07-29T12:46:00;94604.09;;;31.54;20.93
40205;BME280;26963;42.666;23.366;2023-07-29T12:48:26;94548.06;;;31.24;20.37
40205;BME280;26963;42.666;23.366;2023-07-29T12:50:51;94614.47;;;31.66;20.68
40205;BME280;26963;42.666;23.366;2023-07-29T12:53:17;94616.16;;;31.77;20.77
40205;BME280;26963;42.666;23.366;2023-07-29T12:55:43;94630.34;;;31.79;20.57
40205;BME280;26963;42.666;23.366;2023-07-29T12:58:08;94524.78;;;31.09;20.24
40205;BME280;26963;42.666;23.366;2023-07-29T13:00:34;94603.75;;;31.68;20.39
40205;BME280;26963;42.666;23.366;2023-07-29T13:02:59;94603.53;;;31.76;20.47